createdAt,value
2018-03-17T00:00:28.576Z,6.40
2018-03-17T00:02:54.516Z,6.45
2018-03-17T00:05:21.359Z,6.00
2018-03-17T00:07:47.296Z,6.32
2018-03-17T00:10:14.029Z,7.20
2018-03-17T00:12:39.977Z,6.65
2018-03-17T00:15:06.095Z,7.73
2018-03-17T00:17:32.041Z,6.43
2018-03-17T00:19:58.016Z,7.00
2018-03-17T00:22:24.124Z,6.65
2018-03-17T00:24:50.090Z,7.50
2018-03-17T00:27:16.091Z,6.60
2018-03-17T00:29:42.040Z,7.18
2018-03-17T00:32:08.044Z,7.30
2018-03-17T00:34:34.716Z,6.53
2018-03-17T00:37:00.795Z,7.22
2018-03-17T00:39:27.509Z,6.87
2018-03-17T00:41:53.517Z,7.40
2018-03-17T00:44:19.476Z,7.00
2018-03-17T00:46:46.192Z,7.03
2018-03-17T00:49:12.182Z,6.82
2018-03-17T00:51:38.132Z,6.35
2018-03-17T00:54:04.223Z,6.93
2018-03-17T00:56:30.168Z,7.05
2018-03-17T00:58:56.152Z,7.73
2018-03-17T01:01:22.111Z,5.93
2018-03-17T01:03:48.217Z,6.85
2018-03-17T01:06:14.160Z,6.70
2018-03-17T01:08:40.100Z,6.63
2018-03-17T01:11:06.137Z,7.33
2018-03-17T01:13:32.109Z,7.20
2018-03-17T01:15:58.243Z,7.05
2018-03-17T01:18:24.192Z,6.93
2018-03-17T01:20:50.304Z,7.33
2018-03-17T01:23:16.241Z,6.75
2018-03-17T01:25:42.220Z,7.47
2018-03-17T01:28:08.160Z,7.65
2018-03-17T01:30:34.142Z,7.67
2018-03-17T01:33:00.104Z,7.95
2018-03-17T01:35:26.208Z,7.53
2018-03-17T01:37:52.148Z,7.47
2018-03-17T01:40:18.097Z,8.50
2018-03-17T01:42:44.057Z,8.40
2018-03-17T01:45:10.009Z,7.90
2018-03-17T01:47:35.977Z,8.40
2018-03-17T01:50:01.915Z,8.85
2018-03-17T01:52:28.023Z,7.73
2018-03-17T01:54:53.976Z,7.05
2018-03-17T01:57:19.952Z,7.85
2018-03-17T01:59:45.918Z,7.32
2018-03-17T02:02:11.891Z,7.20
2018-03-17T02:04:37.872Z,7.93
2018-03-17T02:07:03.964Z,6.93
2018-03-17T02:09:29.902Z,7.90
2018-03-17T02:11:55.904Z,8.17
2018-03-17T02:14:21.975Z,7.47
2018-03-17T02:16:47.940Z,7.93
2018-03-17T02:19:13.924Z,8.45
2018-03-17T02:21:39.913Z,8.82
2018-03-17T02:24:06.584Z,9.77
2018-03-17T02:26:32.546Z,10.60
2018-03-17T02:28:58.631Z,12.20
2018-03-17T02:31:24.597Z,12.50
2018-03-17T02:33:50.576Z,14.73
2018-03-17T02:36:16.556Z,14.55
2018-03-17T02:38:42.540Z,15.83
2018-03-17T02:41:08.491Z,17.02
2018-03-17T02:43:35.348Z,15.63
2018-03-17T02:46:02.034Z,16.62
2018-03-17T02:48:28.021Z,16.10
2018-03-17T02:50:53.981Z,18.35
2018-03-17T02:53:20.091Z,16.55
2018-03-17T02:55:46.077Z,16.48
2018-03-17T02:58:12.791Z,16.90
2018-03-17T03:00:38.795Z,18.45
2018-03-17T03:03:04.785Z,17.98
2018-03-17T03:05:30.724Z,17.80
2018-03-17T03:07:56.717Z,18.60
2018-03-17T03:10:22.712Z,16.77
2018-03-17T03:12:48.795Z,17.45
2018-03-17T03:15:14.756Z,18.77
2018-03-17T03:17:40.740Z,20.55
2018-03-17T03:20:06.716Z,17.98
2018-03-17T03:22:33.400Z,18.92
2018-03-17T03:24:59.372Z,19.40
2018-03-17T03:27:26.051Z,18.45
2018-03-17T03:29:52.130Z,20.50
2018-03-17T03:32:18.065Z,20.60
2018-03-17T03:34:44.789Z,20.70
2018-03-17T03:37:10.720Z,19.90
2018-03-17T03:39:37.446Z,21.23
2018-03-17T03:42:03.393Z,21.62
2018-03-17T03:44:29.393Z,19.23
2018-03-17T03:46:55.499Z,21.85
2018-03-17T03:49:21.443Z,21.45
2018-03-17T03:51:47.472Z,21.27
2018-03-17T03:54:14.170Z,22.77
2018-03-17T03:56:40.153Z,20.37
2018-03-17T03:59:06.088Z,21.42
2018-03-17T04:01:32.201Z,22.00
2018-03-17T04:03:58.175Z,21.98
2018-03-17T04:06:24.189Z,23.25
2018-03-17T04:08:50.160Z,24.33
2018-03-17T04:11:16.861Z,24.83
2018-03-17T04:13:43.000Z,23.35
2018-03-17T04:16:08.992Z,22.85
2018-03-17T04:18:35.111Z,24.17
2018-03-17T04:21:01.072Z,25.92
2018-03-17T04:23:27.025Z,23.85
2018-03-17T04:25:53.006Z,24.20
2018-03-17T04:28:18.972Z,25.23
2018-03-17T04:30:44.952Z,24.63
2018-03-17T04:33:10.892Z,25.58
2018-03-17T04:35:37.724Z,26.42
2018-03-17T04:38:03.695Z,25.70
2018-03-17T04:40:29.673Z,26.77
2018-03-17T04:42:55.628Z,26.25
2018-03-17T04:45:21.617Z,25.98
2018-03-17T04:47:47.610Z,26.48
2018-03-17T04:50:13.566Z,25.55
2018-03-17T04:52:39.659Z,26.10
2018-03-17T04:55:05.596Z,27.30
2018-03-17T04:57:31.596Z,25.90
2018-03-17T04:59:57.590Z,28.48
2018-03-17T05:02:24.256Z,25.98
2018-03-17T05:04:50.229Z,28.73
2018-03-17T05:07:16.931Z,28.50
2018-03-17T05:09:43.017Z,27.62
2018-03-17T05:12:08.953Z,28.48
2018-03-17T05:14:35.036Z,22.23
2018-03-17T05:17:01.897Z,27.33
2018-03-17T05:19:27.851Z,25.42
2018-03-17T05:21:53.804Z,25.90
2018-03-17T05:24:19.828Z,28.33
2018-03-17T05:26:45.761Z,28.85
2018-03-17T05:29:11.720Z,27.23
2018-03-17T05:31:37.683Z,27.98
2018-03-17T05:34:03.617Z,28.20
2018-03-17T05:36:29.602Z,28.60
2018-03-17T05:38:55.552Z,25.35
2018-03-17T05:41:21.660Z,28.17
2018-03-17T05:43:47.616Z,29.92
2018-03-17T05:46:14.359Z,28.77
2018-03-17T05:48:41.062Z,28.17
2018-03-17T05:51:07.069Z,27.33
2018-03-17T05:53:33.001Z,30.08
2018-03-17T05:55:59.050Z,28.03
2018-03-17T05:58:24.976Z,27.65
2018-03-17T06:00:50.955Z,26.87
2018-03-17T06:03:16.936Z,26.95
2018-03-17T06:05:42.902Z,27.42
2018-03-17T06:08:08.858Z,24.52
2018-03-17T06:10:34.954Z,25.62
2018-03-17T06:13:00.920Z,25.90
2018-03-17T06:15:27.745Z,27.48
2018-03-17T06:17:53.734Z,26.85
2018-03-17T06:20:19.689Z,26.10
2018-03-17T06:22:45.676Z,26.45
2018-03-17T06:25:11.617Z,26.45
2018-03-17T06:27:37.616Z,29.13
2018-03-17T06:30:03.571Z,28.62
2018-03-17T06:32:29.528Z,28.15
2018-03-17T06:34:55.495Z,27.92
2018-03-17T06:37:21.449Z,26.75
2018-03-17T06:39:47.458Z,28.38
2018-03-17T06:42:13.387Z,28.80
2018-03-17T06:44:39.365Z,28.23
2018-03-17T06:47:05.321Z,28.58
2018-03-17T06:49:31.304Z,28.17
2018-03-17T06:51:57.258Z,27.77
2018-03-17T06:54:23.220Z,29.30
2018-03-17T06:56:49.956Z,29.42
2018-03-17T06:59:15.901Z,28.48
2018-03-17T07:01:41.984Z,28.10
2018-03-17T07:04:07.948Z,25.60
2018-03-17T07:06:33.927Z,27.20
2018-03-17T07:08:59.889Z,27.90
2018-03-17T07:11:26.607Z,26.80
2018-03-17T07:13:52.716Z,26.37
2018-03-17T07:16:18.656Z,26.90
2018-03-17T07:18:45.504Z,28.35
2018-03-17T07:21:12.216Z,28.67
2018-03-17T07:23:38.188Z,29.08
2018-03-17T07:26:04.133Z,28.33
2018-03-17T07:28:30.095Z,29.60
2018-03-17T07:30:56.071Z,28.70
2018-03-17T07:33:22.030Z,27.10
2018-03-17T07:35:48.037Z,29.67
2018-03-17T07:38:13.996Z,30.50
2018-03-17T07:40:40.746Z,29.48
2018-03-17T07:43:07.416Z,25.65
2018-03-17T07:45:33.530Z,28.30
2018-03-17T07:47:59.502Z,28.20
2018-03-17T07:50:25.443Z,29.85
2018-03-17T07:52:52.222Z,30.48
2018-03-17T07:55:18.192Z,28.98
2018-03-17T07:57:44.203Z,28.52
2018-03-17T08:00:10.165Z,30.23
2018-03-17T08:02:36.947Z,29.73
2018-03-17T08:05:02.900Z,28.70
2018-03-17T08:07:28.889Z,27.02
2018-03-17T08:09:54.821Z,27.42
2018-03-17T08:12:20.814Z,27.90
2018-03-17T08:14:46.920Z,26.15
2018-03-17T08:17:13.592Z,27.48
2018-03-17T08:19:39.672Z,25.42
2018-03-17T08:22:06.348Z,24.45
2018-03-17T08:24:32.324Z,25.95
2018-03-17T08:26:58.263Z,24.95
2018-03-17T08:29:24.254Z,24.10
2018-03-17T08:31:50.219Z,23.38
2018-03-17T08:34:16.331Z,22.85
2018-03-17T08:36:43.036Z,24.40
2018-03-17T08:39:09.055Z,23.87
2018-03-17T08:41:34.995Z,23.55
2018-03-17T08:44:01.704Z,23.05
2018-03-17T08:46:27.693Z,24.92
2018-03-17T08:48:53.641Z,27.62
2018-03-17T08:51:19.630Z,23.83
2018-03-17T08:53:45.572Z,23.40
2018-03-17T08:56:11.588Z,24.90
2018-03-17T08:58:37.532Z,25.70
2018-03-17T09:01:03.537Z,24.45
2018-03-17T09:03:29.532Z,24.63
2018-03-17T09:05:55.451Z,24.33
2018-03-17T09:08:22.159Z,25.55
2018-03-17T09:10:48.310Z,25.27
2018-03-17T09:13:14.360Z,23.95
2018-03-17T09:15:40.340Z,23.87
2018-03-17T09:18:06.367Z,23.45
2018-03-17T09:20:32.297Z,24.98
2018-03-17T09:22:58.373Z,24.17
2018-03-17T09:25:24.336Z,24.63
2018-03-17T09:27:50.436Z,22.80
2018-03-17T09:30:16.413Z,23.52
2018-03-17T09:32:42.396Z,22.42
2018-03-17T09:35:08.331Z,25.20
2018-03-17T09:37:34.304Z,22.27
2018-03-17T09:40:00.253Z,24.05
2018-03-17T09:42:26.356Z,23.83
2018-03-17T09:44:52.327Z,24.08
2018-03-17T09:47:19.033Z,22.10
2018-03-17T09:49:44.993Z,24.90
2018-03-17T09:52:11.709Z,25.70
2018-03-17T09:54:37.811Z,23.25
2018-03-17T09:57:03.758Z,23.65
2018-03-17T09:59:29.721Z,21.90
2018-03-17T10:01:55.711Z,27.00
2018-03-17T10:04:21.660Z,23.70
2018-03-17T10:06:47.644Z,26.15
2018-03-17T10:09:13.581Z,24.80
2018-03-17T10:11:39.689Z,24.13
2018-03-17T10:14:05.849Z,24.33
2018-03-17T10:16:31.860Z,25.00
2018-03-17T10:18:58.570Z,24.08
2018-03-17T10:21:24.504Z,24.73
2018-03-17T10:23:50.482Z,24.10
2018-03-17T10:26:16.452Z,25.25
2018-03-17T10:28:42.555Z,25.42
2018-03-17T10:31:08.708Z,24.15
2018-03-17T10:33:34.694Z,25.05
2018-03-17T10:36:00.643Z,24.10
2018-03-17T10:38:26.643Z,25.17
2018-03-17T10:40:52.592Z,25.25
2018-03-17T10:43:18.679Z,24.33
2018-03-17T10:45:45.378Z,23.67
2018-03-17T10:48:12.088Z,24.42
2018-03-17T10:50:38.090Z,25.73
2018-03-17T10:53:04.045Z,23.02
2018-03-17T10:55:30.763Z,23.33
2018-03-17T10:57:56.739Z,23.12
2018-03-17T11:00:22.718Z,24.23
2018-03-17T11:02:48.665Z,22.55
2018-03-17T11:05:14.771Z,23.17
2018-03-17T11:07:40.732Z,23.70
2018-03-17T11:10:06.721Z,22.65
2018-03-17T11:12:32.799Z,21.95
2018-03-17T11:14:58.937Z,23.38
2018-03-17T11:17:24.883Z,24.33
2018-03-17T11:19:50.894Z,22.77
2018-03-17T11:22:16.853Z,24.30
2018-03-17T11:24:43.713Z,23.00
2018-03-17T11:27:09.698Z,24.15
2018-03-17T11:29:35.655Z,23.92
2018-03-17T11:32:01.619Z,22.45
2018-03-17T11:34:27.568Z,23.23
2018-03-17T11:36:53.684Z,21.80
2018-03-17T11:39:19.615Z,22.83
2018-03-17T11:41:45.596Z,23.10
2018-03-17T11:44:11.552Z,22.40
2018-03-17T11:46:37.499Z,22.23
2018-03-17T11:49:04.241Z,22.83
2018-03-17T11:51:30.927Z,24.00
2018-03-17T11:53:57.016Z,23.62
2018-03-17T11:56:22.980Z,23.90
2018-03-17T11:58:48.972Z,22.13
2018-03-17T12:01:14.924Z,21.00
2018-03-17T12:03:40.904Z,25.48
2018-03-17T12:06:06.851Z,21.42
2018-03-17T12:08:32.789Z,23.30
2018-03-17T12:10:58.885Z,23.73
2018-03-17T12:13:25.003Z,22.92
2018-03-17T12:15:51.023Z,21.55
2018-03-17T12:18:17.033Z,21.40
2018-03-17T12:20:43.751Z,22.80
2018-03-17T12:23:09.753Z,22.45
2018-03-17T12:25:35.852Z,22.65
2018-03-17T12:28:01.826Z,20.77
2018-03-17T12:30:27.765Z,21.45
2018-03-17T12:32:54.549Z,21.57
2018-03-17T12:35:20.504Z,22.77
2018-03-17T12:37:46.456Z,21.65
2018-03-17T12:40:12.405Z,22.42
2018-03-17T12:42:38.406Z,22.17
2018-03-17T12:45:04.388Z,22.80
2018-03-17T12:47:30.399Z,21.15
2018-03-17T12:49:56.465Z,21.80
2018-03-17T12:52:23.189Z,20.52
2018-03-17T12:54:49.917Z,22.77
2018-03-17T12:57:15.847Z,21.25
2018-03-17T12:59:41.961Z,23.13
2018-03-17T13:02:07.913Z,21.87
2018-03-17T13:04:33.889Z,22.85
2018-03-17T13:06:59.842Z,21.45
2018-03-17T13:09:25.849Z,20.00
2018-03-17T13:11:51.785Z,20.80
2018-03-17T13:14:17.928Z,21.55
2018-03-17T13:16:44.821Z,21.10
2018-03-17T13:19:10.786Z,20.95
2018-03-17T13:21:37.588Z,22.67
2018-03-17T13:24:03.532Z,22.83
2018-03-17T13:26:29.511Z,22.23
2018-03-17T13:28:55.473Z,22.15
2018-03-17T13:31:21.496Z,20.60
2018-03-17T13:33:47.458Z,22.90
2018-03-17T13:36:13.454Z,21.70
2018-03-17T13:38:40.153Z,22.15
2018-03-17T13:41:06.125Z,21.58
2018-03-17T13:43:32.800Z,21.73
2018-03-17T13:45:58.753Z,22.60
2018-03-17T13:48:24.865Z,22.17
2018-03-17T13:50:50.905Z,20.73
2018-03-17T13:53:16.917Z,20.27
2018-03-17T13:55:42.861Z,20.40
2018-03-17T13:58:08.835Z,21.15
2018-03-17T14:00:34.820Z,22.48
2018-03-17T14:03:01.657Z,22.23
2018-03-17T14:05:28.345Z,22.90
2018-03-17T14:07:54.360Z,21.73
2018-03-17T14:10:20.375Z,22.15
2018-03-17T14:12:46.376Z,23.65
2018-03-17T14:15:13.244Z,21.87
2018-03-17T14:17:39.195Z,22.77
2018-03-17T14:20:05.287Z,22.60
2018-03-17T14:22:31.242Z,23.73
2018-03-17T14:24:57.205Z,24.92
2018-03-17T14:27:23.913Z,23.65
2018-03-17T14:29:49.913Z,23.10
2018-03-17T14:32:15.881Z,23.55
2018-03-17T14:34:41.900Z,22.77
2018-03-17T14:37:07.860Z,24.83
2018-03-17T14:39:33.881Z,26.92
2018-03-17T14:41:59.852Z,24.65
2018-03-17T14:44:25.843Z,23.58
2018-03-17T14:46:51.844Z,23.65
2018-03-17T14:49:17.790Z,19.52
2018-03-17T14:51:43.794Z,23.40
2018-03-17T14:54:09.740Z,24.65
2018-03-17T14:56:35.736Z,24.00
2018-03-17T14:59:01.776Z,26.70
2018-03-17T15:01:27.780Z,23.17
2018-03-17T15:03:53.741Z,24.05
2018-03-17T15:06:19.842Z,24.45
2018-03-17T15:08:45.800Z,24.95
2018-03-17T15:11:11.775Z,25.40
2018-03-17T15:13:37.797Z,25.85
2018-03-17T15:16:03.899Z,25.05
2018-03-17T15:18:30.614Z,23.48
2018-03-17T15:20:56.574Z,23.27
2018-03-17T15:23:23.411Z,23.23
2018-03-17T15:25:50.120Z,25.20
2018-03-17T15:28:16.072Z,23.70
2018-03-17T15:30:42.791Z,22.02
2018-03-17T15:33:08.756Z,24.73
2018-03-17T15:35:34.739Z,23.75
2018-03-17T15:38:00.681Z,24.92
2018-03-17T15:40:26.782Z,22.30
2018-03-17T15:42:52.728Z,22.98
2018-03-17T15:45:18.714Z,22.90
2018-03-17T15:47:44.657Z,21.60
2018-03-17T15:50:10.652Z,24.45
2018-03-17T15:52:36.633Z,24.27
2018-03-17T15:55:02.768Z,24.17
2018-03-17T15:57:28.759Z,25.00
2018-03-17T15:59:55.528Z,23.83
2018-03-17T16:02:22.204Z,24.02
2018-03-17T16:04:48.211Z,24.05
2018-03-17T16:07:14.173Z,23.30
2018-03-17T16:09:40.294Z,24.17
2018-03-17T16:12:06.235Z,23.23
2018-03-17T16:14:32.347Z,24.35
2018-03-17T16:16:59.188Z,22.33
2018-03-17T16:19:25.881Z,22.60
2018-03-17T16:21:51.848Z,23.17
2018-03-17T16:24:18.542Z,23.58
2018-03-17T16:26:44.572Z,25.52
2018-03-17T16:29:10.541Z,22.98
2018-03-17T16:31:36.566Z,22.83
2018-03-17T16:34:03.265Z,22.65
2018-03-17T16:36:29.249Z,23.50
2018-03-17T16:38:55.236Z,22.02
2018-03-17T16:41:21.332Z,22.65
2018-03-17T16:43:47.268Z,20.88
2018-03-17T16:46:13.219Z,21.07
2018-03-17T16:48:39.228Z,21.42
2018-03-17T16:51:05.183Z,21.40
2018-03-17T16:53:31.180Z,21.75
2018-03-17T16:55:57.893Z,20.33
2018-03-17T16:58:23.913Z,22.83
2018-03-17T17:00:49.877Z,20.83
2018-03-17T17:03:16.792Z,21.75
2018-03-17T17:05:42.752Z,22.95
2018-03-17T17:08:08.710Z,21.98
2018-03-17T17:10:34.705Z,22.35
2018-03-17T17:13:00.659Z,19.80
2018-03-17T17:15:26.966Z,21.08
2018-03-17T17:17:52.939Z,21.80
2018-03-17T17:20:18.940Z,22.17
2018-03-17T17:22:44.892Z,20.30
2018-03-17T17:25:10.838Z,21.42
2018-03-17T17:27:36.804Z,21.17
2018-03-17T17:30:02.776Z,23.05
2018-03-17T17:32:28.760Z,21.35
2018-03-17T17:34:54.721Z,20.62
2018-03-17T17:37:20.808Z,22.55
2018-03-17T17:39:46.757Z,21.33
2018-03-17T17:42:13.516Z,20.85
2018-03-17T17:44:39.468Z,20.83
2018-03-17T17:47:05.424Z,19.20
2018-03-17T17:49:31.441Z,20.65
2018-03-17T17:51:57.416Z,21.40
2018-03-17T17:54:23.458Z,20.80
2018-03-17T17:56:49.405Z,18.30
2018-03-17T17:59:15.371Z,21.95
2018-03-17T18:01:41.394Z,18.98
2018-03-17T18:04:07.335Z,20.55
2018-03-17T18:06:33.350Z,22.05
2018-03-17T18:08:59.316Z,23.33
2018-03-17T18:11:25.265Z,19.83
2018-03-17T18:13:52.236Z,23.08
2018-03-17T18:16:18.233Z,20.77
2018-03-17T18:18:44.959Z,21.77
2018-03-17T18:21:11.759Z,22.92
2018-03-17T18:23:37.708Z,21.80
2018-03-17T18:26:03.677Z,22.50
2018-03-17T18:28:30.447Z,20.42
2018-03-17T18:30:56.433Z,19.67
2018-03-17T18:33:22.437Z,21.02
2018-03-17T18:35:48.497Z,21.15
2018-03-17T18:38:14.455Z,21.00
2018-03-17T18:40:40.574Z,20.08
2018-03-17T18:43:06.527Z,22.17
2018-03-17T18:45:32.636Z,20.25
2018-03-17T18:47:58.603Z,20.73
2018-03-17T18:50:24.609Z,21.67
2018-03-17T18:52:51.310Z,20.48
2018-03-17T18:55:17.261Z,20.90
2018-03-17T18:57:43.996Z,21.90
2018-03-17T19:00:10.706Z,22.35
2018-03-17T19:02:36.809Z,21.30
2018-03-17T19:05:02.788Z,22.10
2018-03-17T19:07:28.728Z,23.83
2018-03-17T19:09:54.668Z,22.13
2018-03-17T19:12:20.666Z,23.10
2018-03-17T19:14:46.789Z,22.48
2018-03-17T19:17:13.508Z,20.80
2018-03-17T19:19:39.503Z,23.08
2018-03-17T19:22:05.454Z,22.17
2018-03-17T19:24:31.451Z,23.05
2018-03-17T19:26:57.424Z,21.80
2018-03-17T19:29:23.520Z,20.88
2018-03-17T19:31:49.487Z,21.33
2018-03-17T19:34:15.509Z,23.15
2018-03-17T19:36:41.464Z,19.70
2018-03-17T19:39:07.405Z,22.27
2018-03-17T19:41:33.386Z,22.08
2018-03-17T19:43:59.480Z,18.00
2018-03-17T19:46:26.201Z,22.25
2018-03-17T19:48:52.157Z,20.67
2018-03-17T19:51:18.181Z,17.98
2018-03-17T19:53:44.131Z,22.00
2018-03-17T19:56:10.137Z,23.60
2018-03-17T19:58:36.084Z,22.13
2018-03-17T20:01:02.029Z,20.35
2018-03-17T20:03:28.117Z,23.50
2018-03-17T20:05:54.796Z,20.85
2018-03-17T20:08:20.786Z,20.10
2018-03-17T20:10:46.759Z,23.20
2018-03-17T20:13:13.579Z,23.87
2018-03-17T20:15:39.615Z,23.95
2018-03-17T20:18:06.342Z,23.45
2018-03-17T20:20:32.477Z,23.20
2018-03-17T20:22:58.443Z,25.80
2018-03-17T20:25:24.450Z,23.83
2018-03-17T20:27:50.444Z,23.00
2018-03-17T20:30:16.409Z,23.05
2018-03-17T20:32:42.523Z,22.60
2018-03-17T20:35:08.491Z,22.77
2018-03-17T20:37:34.483Z,21.80
2018-03-17T20:40:00.432Z,23.83
2018-03-17T20:42:26.564Z,22.33
2018-03-17T20:44:52.516Z,26.10
2018-03-17T20:47:19.286Z,19.62
2018-03-17T20:49:45.245Z,22.05
2018-03-17T20:52:11.180Z,24.37
2018-03-17T20:54:37.205Z,23.25
2018-03-17T20:57:03.203Z,24.60
2018-03-17T20:59:29.178Z,24.00
2018-03-17T21:01:55.861Z,24.73
2018-03-17T21:04:21.790Z,23.73
2018-03-17T21:06:47.915Z,23.43
2018-03-17T21:09:13.869Z,22.50
2018-03-17T21:11:40.602Z,24.85
2018-03-17T21:14:06.736Z,25.45
2018-03-17T21:16:32.668Z,22.05
2018-03-17T21:18:59.378Z,23.35
2018-03-17T21:21:25.502Z,24.23
2018-03-17T21:23:51.468Z,25.98
2018-03-17T21:26:17.478Z,26.45
2018-03-17T21:28:44.166Z,26.00
2018-03-17T21:31:10.119Z,26.60
2018-03-17T21:33:36.225Z,25.23
2018-03-17T21:36:02.189Z,26.23
2018-03-17T21:38:28.912Z,25.70
2018-03-17T21:40:54.933Z,25.55
2018-03-17T21:43:20.874Z,24.50
2018-03-17T21:45:47.585Z,25.10
2018-03-17T21:48:13.697Z,25.37
2018-03-17T21:50:39.656Z,26.55
2018-03-17T21:53:06.466Z,25.77
2018-03-17T21:55:32.421Z,25.00
2018-03-17T21:57:59.152Z,23.98
2018-03-17T22:00:25.879Z,27.35
2018-03-17T22:02:51.917Z,25.33
2018-03-17T22:05:18.648Z,25.67
2018-03-17T22:07:44.781Z,27.08
2018-03-17T22:10:10.717Z,24.60
2018-03-17T22:12:37.445Z,27.73
2018-03-17T22:15:04.274Z,28.30
2018-03-17T22:17:30.247Z,26.80
2018-03-17T22:19:56.233Z,26.80
2018-03-17T22:22:22.995Z,27.35
2018-03-17T22:24:49.096Z,24.50
2018-03-17T22:27:15.832Z,26.17
2018-03-17T22:29:42.512Z,25.85
2018-03-17T22:32:08.480Z,28.10
2018-03-17T22:34:34.457Z,28.95
2018-03-17T22:37:00.408Z,28.60
2018-03-17T22:39:26.425Z,26.30
2018-03-17T22:41:52.383Z,25.33
2018-03-17T22:44:19.098Z,27.80
2018-03-17T22:46:45.119Z,25.02
2018-03-17T22:49:11.062Z,27.17
2018-03-17T22:51:37.050Z,25.02
2018-03-17T22:54:03.018Z,27.02
2018-03-17T22:56:29.847Z,25.58
2018-03-17T22:58:55.792Z,25.90
2018-03-17T23:01:22.519Z,27.62
2018-03-17T23:03:49.218Z,28.25
2018-03-17T23:06:15.216Z,27.15
2018-03-17T23:08:41.169Z,26.87
2018-03-17T23:11:07.105Z,25.42
2018-03-17T23:13:33.208Z,24.87
2018-03-17T23:15:59.179Z,27.67
2018-03-17T23:18:25.167Z,25.67
2018-03-17T23:20:51.114Z,26.12
2018-03-17T23:23:17.820Z,26.25
2018-03-17T23:25:43.788Z,24.37
2018-03-17T23:28:10.657Z,27.35
2018-03-17T23:30:36.602Z,28.50
2018-03-17T23:33:02.546Z,27.75
2018-03-17T23:35:28.514Z,25.23
2018-03-17T23:37:54.444Z,26.90
2018-03-17T23:40:20.413Z,24.20
2018-03-17T23:42:46.351Z,23.65
2018-03-17T23:45:13.176Z,25.48
2018-03-17T23:47:39.128Z,26.35
2018-03-17T23:50:05.863Z,26.70
2018-03-17T23:52:32.552Z,23.20
2018-03-17T23:54:58.503Z,28.25
2018-03-17T23:57:24.471Z,25.92
2018-03-17T23:59:50.448Z,27.52
